createdAt,value
2022-12-28T00:00:57.320Z,87.4
2022-12-28T00:02:01.664Z,87.5
2022-12-28T00:03:06.598Z,87.5
2022-12-28T00:04:11.315Z,87.4
2022-12-28T00:05:15.486Z,87.4
2022-12-28T00:06:19.387Z,87.3
2022-12-28T00:07:22.464Z,87.2
2022-12-28T00:08:26.134Z,87.1
2022-12-28T00:09:29.855Z,87.1
2022-12-28T00:11:31.444Z,87.1
2022-12-28T00:12:35.635Z,87.4
2022-12-28T00:13:39.261Z,87.6
2022-12-28T00:14:46.955Z,87.7
2022-12-28T00:15:50.394Z,87.8
2022-12-28T00:16:53.757Z,87.8
2022-12-28T00:17:56.874Z,88
2022-12-28T00:19:00.426Z,88
2022-12-28T00:20:03.373Z,87.9
2022-12-28T00:21:07.205Z,87.8
2022-12-28T00:22:10.419Z,87.9
2022-12-28T00:23:13.599Z,88
2022-12-28T00:24:16.111Z,87.9
2022-12-28T00:25:19.468Z,87.9
2022-12-28T00:26:22.819Z,87.9
2022-12-28T00:27:25.354Z,87.9
2022-12-28T00:28:28.364Z,87.8
2022-12-28T00:29:31.359Z,87.8
2022-12-28T00:30:34.779Z,87.8
2022-12-28T00:31:38.224Z,87.8
2022-12-28T00:32:41.715Z,87.8
2022-12-28T00:33:44.485Z,87.9
2022-12-28T00:34:47.875Z,87.7
2022-12-28T00:35:50.451Z,87.6
2022-12-28T00:37:14.070Z,87.6
2022-12-28T00:38:16.553Z,87.3
2022-12-28T00:39:19.943Z,87.2
2022-12-28T00:40:24.834Z,87.1
2022-12-28T00:41:27.721Z,87
2022-12-28T00:42:30.752Z,86.9
2022-12-28T00:43:33.881Z,86.7
2022-12-28T00:44:37.534Z,86.6
2022-12-28T00:45:40.493Z,86.7
2022-12-28T00:46:43.772Z,86.5
2022-12-28T00:47:46.485Z,86.4
2022-12-28T00:48:48.975Z,86.4
2022-12-28T00:49:52.364Z,86.3
2022-12-28T00:50:55.396Z,86.3
2022-12-28T00:51:58.813Z,86
2022-12-28T00:53:02.187Z,85.9
2022-12-28T00:54:05.066Z,85.9
2022-12-28T00:55:08.068Z,85.9
2022-12-28T00:56:11.441Z,85.8
2022-12-28T00:57:14.725Z,85.8
2022-12-28T00:58:17.719Z,85.7
2022-12-28T00:59:20.909Z,85.6
2022-12-28T01:00:23.969Z,85.5
2022-12-28T01:01:27.716Z,85.6
2022-12-28T01:02:31.128Z,85.5
2022-12-28T01:03:34.677Z,85.6
2022-12-28T01:04:37.772Z,85.6
2022-12-28T01:05:41.149Z,85.5
2022-12-28T01:06:44.279Z,85.5
2022-12-28T01:07:48.096Z,85.6
2022-12-28T01:08:51.379Z,85.7
2022-12-28T01:09:54.125Z,85.7
2022-12-28T01:10:56.928Z,85.7
2022-12-28T01:11:59.995Z,85.6
2022-12-28T01:13:03.500Z,85.6
2022-12-28T01:14:06.318Z,85.5
2022-12-28T01:15:09.336Z,85.6
2022-12-28T01:16:12.817Z,85.7
2022-12-28T01:17:15.705Z,85.7
2022-12-28T01:18:18.995Z,85.6
2022-12-28T01:19:22.055Z,85.6
2022-12-28T01:20:25.454Z,85.6
2022-12-28T01:21:28.857Z,85.5
2022-12-28T01:22:32.348Z,85.6
2022-12-28T01:23:35.541Z,85.6
2022-12-28T01:24:37.990Z,85.6
2022-12-28T01:25:40.722Z,85.6
2022-12-28T01:26:43.729Z,85.6
2022-12-28T01:27:46.176Z,85.5
2022-12-28T01:28:49.000Z,85.4
2022-12-28T01:29:52.131Z,85.3
2022-12-28T01:30:54.569Z,85.2
2022-12-28T01:31:58.462Z,85.2
2022-12-28T01:33:01.734Z,85.1
2022-12-28T01:34:04.753Z,85.1
2022-12-28T01:35:09.840Z,85
2022-12-28T01:36:13.036Z,85
2022-12-28T01:37:16.401Z,85
2022-12-28T01:38:19.583Z,85
2022-12-28T01:39:23.361Z,84.9
2022-12-28T01:40:26.234Z,84.7
2022-12-28T01:41:29.275Z,84.7
2022-12-28T01:42:32.550Z,84.5
2022-12-28T01:43:34.742Z,84.5
2022-12-28T01:44:38.732Z,84.5
2022-12-28T01:45:41.716Z,84.6
2022-12-28T01:46:45.230Z,84.7
2022-12-28T01:47:48.351Z,84.6
2022-12-28T01:48:52.130Z,84.4
2022-12-28T01:49:55.770Z,84.4
2022-12-28T01:50:58.754Z,84.5
2022-12-28T01:52:01.793Z,84.6
2022-12-28T01:53:05.246Z,84.5
2022-12-28T01:54:08.171Z,84.5
2022-12-28T01:55:11.920Z,84.6
2022-12-28T01:56:15.346Z,84.6
2022-12-28T01:57:18.054Z,84.6
2022-12-28T01:58:20.500Z,84.5
2022-12-28T01:59:23.875Z,84.4
2022-12-28T02:00:26.777Z,84.5
2022-12-28T02:01:30.003Z,84.4
2022-12-28T02:02:34.125Z,84.2
2022-12-28T02:03:37.405Z,84.2
2022-12-28T02:04:41.077Z,84.1
2022-12-28T02:05:43.818Z,84.1
2022-12-28T02:06:47.136Z,84.1
2022-12-28T02:07:49.893Z,84.1
2022-12-28T02:08:53.278Z,84
2022-12-28T02:10:47.152Z,83.8
2022-12-28T02:11:50.647Z,83.5
2022-12-28T02:12:53.331Z,83.6
2022-12-28T02:13:56.141Z,83.7
2022-12-28T02:14:59.197Z,83.7
2022-12-28T02:16:01.954Z,83.6
2022-12-28T02:17:05.004Z,83.7
2022-12-28T02:18:08.174Z,83.7
2022-12-28T02:19:10.981Z,83.7
2022-12-28T02:20:14.379Z,83.5
2022-12-28T02:21:17.457Z,83.5
2022-12-28T02:22:20.826Z,83.6
2022-12-28T02:23:23.295Z,83.4
2022-12-28T02:24:26.405Z,83.2
2022-12-28T02:25:33.949Z,83.4
2022-12-28T02:26:37.206Z,83
2022-12-28T02:27:41.286Z,82.9
2022-12-28T02:28:44.651Z,82.9
2022-12-28T02:29:47.145Z,82.7
2022-12-28T02:30:50.435Z,82.7
2022-12-28T02:31:54.200Z,82.5
2022-12-28T02:32:56.842Z,82.4
2022-12-28T02:33:59.834Z,82.4
2022-12-28T02:35:02.316Z,82.3
2022-12-28T02:36:05.152Z,82.3
2022-12-28T02:37:07.983Z,82.2
2022-12-28T02:38:11.059Z,82.3
2022-12-28T02:39:14.342Z,82.1
2022-12-28T02:40:18.596Z,82.1
2022-12-28T02:41:22.396Z,82.2
2022-12-28T02:42:25.879Z,82
2022-12-28T02:43:29.693Z,82.1
2022-12-28T02:44:32.958Z,82.1
2022-12-28T02:45:35.658Z,82.2
2022-12-28T02:46:38.921Z,82.1
2022-12-28T02:47:42.088Z,81.9
2022-12-28T02:48:45.162Z,81.9
2022-12-28T02:49:48.175Z,82.1
2022-12-28T02:50:51.242Z,82
2022-12-28T02:51:55.271Z,81.7
2022-12-28T02:52:58.276Z,81.7
2022-12-28T02:54:01.376Z,81.7
2022-12-28T02:55:05.128Z,81.7
2022-12-28T02:56:09.224Z,81.6
2022-12-28T02:57:12.063Z,81.5
2022-12-28T02:58:15.128Z,81.3
2022-12-28T02:59:18.693Z,81.4
2022-12-28T03:00:22.070Z,81.1
2022-12-28T03:01:25.080Z,81.1
2022-12-28T03:02:29.540Z,81
2022-12-28T03:03:33.088Z,81.3
2022-12-28T03:04:36.550Z,81.1
2022-12-28T03:05:39.606Z,81
2022-12-28T03:06:42.747Z,80.9
2022-12-28T03:07:45.925Z,80.9
2022-12-28T03:08:49.104Z,80.8
2022-12-28T03:09:52.733Z,80.7
2022-12-28T03:10:55.828Z,80.6
2022-12-28T03:11:59.185Z,80.6
2022-12-28T03:13:02.364Z,80.7
2022-12-28T03:14:05.838Z,80.6
2022-12-28T03:15:09.665Z,80.8
2022-12-28T03:16:12.862Z,80.5
2022-12-28T03:17:16.280Z,80.7
2022-12-28T03:18:19.071Z,80.5
2022-12-28T03:19:22.361Z,80.4
2022-12-28T03:20:25.771Z,80.4
2022-12-28T03:21:29.132Z,80.4
2022-12-28T03:22:32.505Z,80.3
2022-12-28T03:23:36.009Z,80.3
2022-12-28T03:24:39.434Z,80.1
2022-12-28T03:25:42.426Z,80.1
2022-12-28T03:26:44.610Z,79.9
2022-12-28T03:27:48.351Z,80.1
2022-12-28T03:28:51.483Z,80.2
2022-12-28T03:29:54.603Z,80.2
2022-12-28T03:30:58.826Z,80.1
2022-12-28T03:32:01.639Z,80.2
2022-12-28T03:33:04.102Z,80.2
2022-12-28T03:34:07.584Z,79.9
2022-12-28T03:35:11.597Z,80
2022-12-28T03:36:16.884Z,80
2022-12-28T03:37:19.872Z,80
2022-12-28T03:38:22.577Z,80.1
2022-12-28T03:39:25.136Z,80.2
2022-12-28T03:40:28.330Z,79.9
2022-12-28T03:41:31.126Z,80.1
2022-12-28T03:42:34.281Z,80
2022-12-28T03:43:37.359Z,79.9
2022-12-28T03:44:39.838Z,79.8
2022-12-28T03:45:48.687Z,79.7
2022-12-28T03:46:52.399Z,80.1
2022-12-28T03:47:55.752Z,80
2022-12-28T03:48:59.101Z,80
2022-12-28T03:50:02.651Z,79.8
2022-12-28T03:51:05.592Z,80
2022-12-28T03:52:08.303Z,80.1
2022-12-28T03:53:11.410Z,80
2022-12-28T03:54:14.515Z,79.9
2022-12-28T03:55:18.011Z,79.9
2022-12-28T03:56:20.550Z,79.8
2022-12-28T03:57:23.923Z,80
2022-12-28T03:58:27.359Z,79.8
2022-12-28T03:59:31.096Z,80
2022-12-28T04:00:33.848Z,79.7
2022-12-28T04:01:38.003Z,79.8
2022-12-28T04:02:42.299Z,79.8
2022-12-28T04:03:46.053Z,79.8
2022-12-28T04:04:48.855Z,79.8
2022-12-28T04:05:52.016Z,79.7
2022-12-28T04:06:54.724Z,79.9
2022-12-28T04:07:57.315Z,80.1
2022-12-28T04:09:00.153Z,80.2
2022-12-28T04:10:03.890Z,80.3
2022-12-28T04:11:07.428Z,80.3
2022-12-28T04:12:10.570Z,80.3
2022-12-28T04:13:14.221Z,80.5
2022-12-28T04:14:18.747Z,80.7
2022-12-28T04:15:22.476Z,80.7
2022-12-28T04:16:25.316Z,80.3
2022-12-28T04:17:28.610Z,80.8
2022-12-28T04:18:31.800Z,80.7
2022-12-28T04:19:34.518Z,80.9
2022-12-28T04:20:37.692Z,80.9
2022-12-28T04:21:41.249Z,81.1
2022-12-28T04:22:44.945Z,81.4
2022-12-28T04:23:48.116Z,81.4
2022-12-28T04:24:51.453Z,81.7
2022-12-28T04:25:54.536Z,81.8
2022-12-28T04:26:58.222Z,82.1
2022-12-28T04:28:00.390Z,82.3
2022-12-28T04:29:04.156Z,82.4
2022-12-28T04:30:07.003Z,82.7
2022-12-28T04:31:10.841Z,82.9
2022-12-28T04:32:14.364Z,82.9
2022-12-28T04:33:17.524Z,83.1
2022-12-28T04:34:21.295Z,83.3
2022-12-28T04:35:24.456Z,83.8
2022-12-28T04:36:27.552Z,84
2022-12-28T04:37:31.271Z,84
2022-12-28T04:38:34.631Z,83.7
2022-12-28T04:39:58.546Z,83.8
2022-12-28T04:41:00.987Z,83.8
2022-12-28T04:42:04.447Z,84.1
2022-12-28T04:43:07.513Z,84.1
2022-12-28T04:44:10.541Z,84.1
2022-12-28T04:45:23.093Z,84.5
2022-12-28T04:46:27.160Z,84.4
2022-12-28T04:47:30.436Z,84.6
2022-12-28T04:48:33.378Z,84.3
2022-12-28T04:49:37.101Z,84.8
2022-12-28T04:50:40.236Z,85
2022-12-28T04:51:42.946Z,84.9
2022-12-28T04:52:45.667Z,85.2
2022-12-28T04:53:48.663Z,85.4
2022-12-28T04:54:51.510Z,85.4
2022-12-28T04:55:54.944Z,85.6
2022-12-28T04:56:58.291Z,86
2022-12-28T04:58:01.752Z,86.3
2022-12-28T04:59:04.672Z,86.2
2022-12-28T05:00:07.839Z,86.3
2022-12-28T05:01:11.272Z,86.6
2022-12-28T05:02:15.355Z,86.9
2022-12-28T05:03:18.627Z,86.8
2022-12-28T05:04:22.052Z,86.7
2022-12-28T05:05:25.893Z,87
2022-12-28T05:06:29.171Z,87.2
2022-12-28T05:07:32.586Z,87.3
2022-12-28T05:08:35.699Z,87.4
2022-12-28T05:09:38.502Z,87.8
2022-12-28T05:10:41.637Z,87.9
2022-12-28T05:11:45.264Z,88
2022-12-28T05:12:48.316Z,88.3
2022-12-28T05:13:51.677Z,88.3
2022-12-28T05:14:54.969Z,88.4
2022-12-28T05:15:57.877Z,88.6
2022-12-28T05:17:01.008Z,88.8
2022-12-28T05:18:04.539Z,88.7
2022-12-28T05:19:07.296Z,88.7
2022-12-28T05:20:09.840Z,88.8
2022-12-28T05:21:13.568Z,89.1
2022-12-28T05:22:16.024Z,89.2
2022-12-28T05:23:19.220Z,89.3
2022-12-28T05:24:22.007Z,89.4
2022-12-28T05:25:25.088Z,89.6
2022-12-28T05:26:27.657Z,89.5
2022-12-28T05:27:31.438Z,89.5
2022-12-28T05:28:34.497Z,89.5
2022-12-28T05:29:37.230Z,89.8
2022-12-28T05:30:40.014Z,89.9
2022-12-28T05:31:42.893Z,89.8
2022-12-28T05:32:46.395Z,90.1
2022-12-28T05:33:49.820Z,90.1
2022-12-28T05:34:53.291Z,90.1
2022-12-28T05:35:56.113Z,90.1
2022-12-28T05:36:59.913Z,90.2
2022-12-28T05:38:03.721Z,90.3
2022-12-28T05:39:06.313Z,90.3
2022-12-28T05:40:08.751Z,90.5
2022-12-28T05:41:11.185Z,90.5
2022-12-28T05:42:14.459Z,90.3
2022-12-28T05:43:17.618Z,90.6
2022-12-28T05:44:20.659Z,90.8
2022-12-28T05:45:23.800Z,91
2022-12-28T05:46:27.548Z,91.1
2022-12-28T05:47:31.123Z,91.2
2022-12-28T05:48:34.849Z,91.2
2022-12-28T05:49:37.945Z,91.3
2022-12-28T05:50:42.044Z,91.5
2022-12-28T05:51:45.841Z,91.6
2022-12-28T05:52:49.405Z,91.5
2022-12-28T05:53:52.145Z,91.6
2022-12-28T05:54:55.532Z,91.8
2022-12-28T05:55:58.579Z,91.9
2022-12-28T05:57:01.327Z,91.8
2022-12-28T05:58:04.383Z,91.7
2022-12-28T05:59:08.094Z,91.8
2022-12-28T06:00:11.859Z,91.8
2022-12-28T06:01:14.919Z,91.8
2022-12-28T06:02:26.077Z,91.9
2022-12-28T06:03:30.853Z,91.8
2022-12-28T06:04:34.043Z,92.1
2022-12-28T06:05:37.542Z,92
2022-12-28T06:06:40.914Z,92.1
2022-12-28T06:07:43.703Z,92.2
2022-12-28T06:08:47.217Z,92.3
2022-12-28T06:09:50.587Z,92.3
2022-12-28T06:10:53.100Z,92.4
2022-12-28T06:11:56.524Z,92.6
2022-12-28T06:13:00.135Z,92.7
2022-12-28T06:14:03.207Z,92.7
2022-12-28T06:15:06.319Z,92.7
2022-12-28T06:16:08.772Z,92.7
2022-12-28T06:17:12.664Z,92.7
2022-12-28T06:18:14.889Z,92.7
2022-12-28T06:19:17.898Z,92.9
2022-12-28T06:20:20.941Z,93
2022-12-28T06:21:24.566Z,93
2022-12-28T06:22:28.276Z,93
2022-12-28T06:23:31.590Z,93
2022-12-28T06:24:35.299Z,93.1
2022-12-28T06:25:38.087Z,93.2
2022-12-28T06:26:41.799Z,93.3
2022-12-28T06:27:44.393Z,93.5
2022-12-28T06:28:47.747Z,93.7
2022-12-28T06:29:51.453Z,93.8
2022-12-28T06:30:54.831Z,93.9
2022-12-28T06:31:58.086Z,93.9
2022-12-28T06:33:01.267Z,94
2022-12-28T06:34:04.079Z,94
2022-12-28T06:35:07.075Z,94
2022-12-28T06:36:19.562Z,94.1
2022-12-28T06:37:24.197Z,94.2
2022-12-28T06:38:27.636Z,94.1
2022-12-28T06:39:31.173Z,94.1
2022-12-28T06:41:15.738Z,94.1
2022-12-28T06:42:18.573Z,94.3
2022-12-28T06:43:21.640Z,94.3
2022-12-28T06:44:24.466Z,94.3
2022-12-28T06:45:27.952Z,94.4
2022-12-28T06:46:31.602Z,94.6
2022-12-28T06:47:34.431Z,94.8
2022-12-28T06:48:37.515Z,94.8
2022-12-28T06:49:40.309Z,94.9
2022-12-28T06:50:43.756Z,94.8
2022-12-28T06:51:46.786Z,94.9
2022-12-28T06:52:50.222Z,95
2022-12-28T06:53:53.226Z,95
2022-12-28T06:54:56.346Z,95.2
2022-12-28T06:55:59.843Z,95.3
2022-12-28T06:57:03.228Z,95.3
2022-12-28T06:58:06.587Z,95.3
2022-12-28T06:59:08.810Z,95.3
2022-12-28T07:00:12.157Z,95.4
2022-12-28T07:01:16.181Z,95.4
2022-12-28T07:02:20.546Z,95.5
2022-12-28T07:03:24.267Z,95.6
2022-12-28T07:04:27.359Z,95.7
2022-12-28T07:05:31.058Z,95.8
2022-12-28T07:06:34.431Z,95.9
2022-12-28T07:07:38.493Z,96
2022-12-28T07:08:42.242Z,96
2022-12-28T07:09:45.248Z,95.9
2022-12-28T07:10:48.298Z,96
2022-12-28T07:11:51.535Z,96
2022-12-28T07:12:54.531Z,96.1
2022-12-28T07:13:57.558Z,96.2
2022-12-28T07:15:01.229Z,96.2
2022-12-28T07:16:04.288Z,96.2
2022-12-28T07:17:07.121Z,96.1
2022-12-28T07:18:09.992Z,96.1
2022-12-28T07:19:13.383Z,96.2
2022-12-28T07:20:16.492Z,96.3
2022-12-28T07:21:19.584Z,96.4
2022-12-28T07:22:22.093Z,96.3
2022-12-28T07:23:24.624Z,96.3
2022-12-28T07:24:28.271Z,96.3
2022-12-28T07:25:30.979Z,96.3
2022-12-28T07:26:34.422Z,96.3
2022-12-28T07:27:37.622Z,96.4
2022-12-28T07:28:40.323Z,96.4
2022-12-28T07:29:43.359Z,96.3
2022-12-28T07:30:46.921Z,96.4
2022-12-28T07:31:49.693Z,96.3
2022-12-28T07:32:53.039Z,96.3
2022-12-28T07:33:56.414Z,96.3
2022-12-28T07:35:00.191Z,96.3
2022-12-28T07:36:02.683Z,96.3
2022-12-28T07:37:05.689Z,96.3
2022-12-28T07:38:08.811Z,96.3
2022-12-28T07:39:11.748Z,96.3
2022-12-28T07:40:14.292Z,96.3
2022-12-28T07:41:17.710Z,96.3
2022-12-28T07:42:21.200Z,96.4
2022-12-28T07:43:25.308Z,96.5
2022-12-28T07:44:39.468Z,96.6
2022-12-28T07:45:51.723Z,96.6
2022-12-28T07:46:54.727Z,96.6
2022-12-28T07:47:57.458Z,96.5
2022-12-28T07:48:59.988Z,96.5
2022-12-28T07:50:03.420Z,96.5
2022-12-28T07:51:06.261Z,96.6
2022-12-28T07:52:09.284Z,96.7
2022-12-28T07:53:22.431Z,96.7
2022-12-28T07:54:25.881Z,96.6
2022-12-28T07:55:29.288Z,96.5
2022-12-28T07:57:35.253Z,96.6
2022-12-28T07:59:42.556Z,96.6
2022-12-28T08:00:45.559Z,96.6
2022-12-28T08:01:48.877Z,96.6
2022-12-28T08:02:52.275Z,96.6
2022-12-28T08:03:55.584Z,96.6
2022-12-28T08:04:58.241Z,96.7
2022-12-28T08:06:01.655Z,96.8
2022-12-28T08:07:04.742Z,96.9
2022-12-28T08:08:07.835Z,97.4
2022-12-28T08:09:11.022Z,97.1
2022-12-28T08:10:13.567Z,97
2022-12-28T08:11:17.019Z,96.8
2022-12-28T08:12:20.101Z,96.8
2022-12-28T08:13:23.230Z,96.8
2022-12-28T08:14:26.929Z,96.8
2022-12-28T08:15:29.847Z,96.8
2022-12-28T08:16:33.294Z,96.8
2022-12-28T08:17:36.390Z,96.8
2022-12-28T08:18:39.219Z,96.8
2022-12-28T08:19:42.556Z,96.9
2022-12-28T08:20:45.332Z,97
2022-12-28T08:21:48.320Z,97
2022-12-28T08:22:51.438Z,97
2022-12-28T08:23:53.918Z,97.1
2022-12-28T08:24:57.276Z,97.2
2022-12-28T08:26:00.450Z,97.2
2022-12-28T08:27:04.233Z,97.2
2022-12-28T08:28:07.590Z,97.3
2022-12-28T08:29:10.986Z,97.4
2022-12-28T08:30:14.774Z,97.4
2022-12-28T08:31:18.444Z,97.4
2022-12-28T08:32:21.541Z,97.5
2022-12-28T08:33:24.905Z,97.6
2022-12-28T08:34:28.661Z,97.6
2022-12-28T08:35:31.741Z,97.7
2022-12-28T08:36:35.221Z,97.7
2022-12-28T08:37:39.305Z,97.7
2022-12-28T08:38:42.682Z,97.8
2022-12-28T08:39:46.691Z,97.8
2022-12-28T08:40:58.519Z,97.8
2022-12-28T08:42:01.953Z,97.9
2022-12-28T08:43:05.322Z,97.9
2022-12-28T08:44:08.411Z,97.8
2022-12-28T08:45:12.192Z,97.9
2022-12-28T08:46:16.081Z,98
2022-12-28T08:47:20.755Z,97.9
2022-12-28T08:48:24.055Z,97.9
2022-12-28T08:49:27.209Z,97.9
2022-12-28T08:50:33.448Z,97.8
2022-12-28T08:51:36.153Z,98
2022-12-28T08:52:39.778Z,98
2022-12-28T08:53:43.469Z,98
2022-12-28T08:54:46.940Z,97.9
2022-12-28T08:55:50.092Z,97.9
2022-12-28T08:56:53.403Z,97.9
2022-12-28T08:57:56.424Z,97.9
2022-12-28T08:58:59.582Z,98
2022-12-28T09:00:02.831Z,98
2022-12-28T09:01:06.629Z,98
2022-12-28T09:02:11.684Z,98.1
2022-12-28T09:03:15.770Z,98.6
2022-12-28T09:04:19.680Z,98.3
2022-12-28T09:05:23.332Z,98.2
2022-12-28T09:06:26.332Z,98.1
2022-12-28T09:07:29.722Z,98
2022-12-28T09:08:33.071Z,98
2022-12-28T09:09:37.063Z,98
2022-12-28T09:10:39.706Z,98
2022-12-28T09:11:42.879Z,98.2
2022-12-28T09:12:46.629Z,98.3
2022-12-28T09:13:49.986Z,98.3
2022-12-28T09:14:53.427Z,98.4
2022-12-28T09:15:56.303Z,98.4
2022-12-28T09:16:59.795Z,98.4
2022-12-28T09:18:03.932Z,98.4
2022-12-28T09:19:07.232Z,98.4
2022-12-28T09:20:10.631Z,98.4
2022-12-28T09:21:13.671Z,98.3
2022-12-28T09:22:17.326Z,98.2
2022-12-28T09:23:20.101Z,98.2
2022-12-28T09:24:23.793Z,98.2
2022-12-28T09:25:26.906Z,98.2
2022-12-28T09:26:29.957Z,98.2
2022-12-28T09:27:33.016Z,98.2
2022-12-28T09:28:36.122Z,98.2
2022-12-28T09:29:39.769Z,98.2
2022-12-28T09:30:43.129Z,98.3
2022-12-28T09:31:46.646Z,98.3
2022-12-28T09:32:50.525Z,98.2
2022-12-28T09:34:38.938Z,98.2
2022-12-28T09:35:42.652Z,98.2
2022-12-28T09:36:45.722Z,98.2
2022-12-28T09:37:48.808Z,98.2
2022-12-28T09:38:52.055Z,98.3
2022-12-28T09:40:02.698Z,98.4
2022-12-28T09:41:05.695Z,98.5
2022-12-28T09:42:08.272Z,98.7
2022-12-28T09:43:10.874Z,98.8
2022-12-28T09:44:14.889Z,98.8
2022-12-28T09:45:18.297Z,98.9
2022-12-28T09:46:22.261Z,98.8
2022-12-28T09:47:25.744Z,98.9
2022-12-28T09:48:29.089Z,98.9
2022-12-28T09:49:33.208Z,98.9
2022-12-28T09:50:35.740Z,99
2022-12-28T09:51:38.897Z,99
2022-12-28T09:52:51.045Z,99
2022-12-28T09:53:54.335Z,99.1
2022-12-28T09:54:57.433Z,99.1
2022-12-28T09:56:00.201Z,99.1
2022-12-28T09:57:03.278Z,99.1
2022-12-28T09:58:06.755Z,99
2022-12-28T09:59:09.267Z,99
2022-12-28T10:00:12.249Z,99
2022-12-28T10:01:15.847Z,99
2022-12-28T10:02:19.648Z,99
2022-12-28T10:03:23.412Z,99
2022-12-28T10:04:27.051Z,99
2022-12-28T10:05:30.828Z,99.1
2022-12-28T10:06:33.893Z,99.2
2022-12-28T10:07:36.928Z,99.2
2022-12-28T10:08:40.277Z,99.2
2022-12-28T10:09:43.404Z,99.3
2022-12-28T10:10:50.666Z,99.3
2022-12-28T10:11:54.091Z,99.4
2022-12-28T10:12:56.915Z,99.4
2022-12-28T10:14:00.204Z,99.4
2022-12-28T10:15:02.604Z,99.4
2022-12-28T10:16:06.141Z,99.4
2022-12-28T10:17:09.515Z,99.3
2022-12-28T10:18:12.939Z,99.4
2022-12-28T10:19:15.941Z,99.5
2022-12-28T10:20:19.412Z,99.5
2022-12-28T10:21:34.018Z,99.5
2022-12-28T10:22:37.431Z,99.6
2022-12-28T10:24:33.458Z,99.6
2022-12-28T10:25:37.062Z,99.5
2022-12-28T10:26:40.130Z,99.5
2022-12-28T10:27:43.122Z,99.5
2022-12-28T10:28:50.317Z,99.5
2022-12-28T10:29:53.468Z,99.6
2022-12-28T10:30:56.960Z,99.5
2022-12-28T10:32:00.590Z,99.6
2022-12-28T10:33:06.316Z,99.7
2022-12-28T10:34:18.833Z,99.6
2022-12-28T10:35:22.236Z,99.6
2022-12-28T10:36:32.579Z,99.6
2022-12-28T10:37:36.333Z,99.5
2022-12-28T10:38:39.413Z,99.6
2022-12-28T10:39:43.080Z,99.6
2022-12-28T10:40:46.851Z,99.6
2022-12-28T10:41:49.764Z,99.6
2022-12-28T10:42:52.918Z,99.6
2022-12-28T10:44:41.982Z,99.5
2022-12-28T10:45:45.426Z,99.5
2022-12-28T10:46:49.515Z,99.6
2022-12-28T10:47:52.969Z,99.7
2022-12-28T10:48:55.889Z,99.8
2022-12-28T10:50:38.695Z,99.8
2022-12-28T10:51:42.373Z,99.9
2022-12-28T10:52:45.887Z,99.9
2022-12-28T10:53:48.618Z,99.9
2022-12-28T10:55:09.520Z,99.9
2022-12-28T10:56:14.173Z,99.9
2022-12-28T10:57:19.996Z,99.9
2022-12-28T10:58:34.984Z,100
2022-12-28T10:59:38.091Z,100
2022-12-28T11:00:53.165Z,99.9
2022-12-28T11:01:58.828Z,99.9
2022-12-28T11:03:02.963Z,99.8
2022-12-28T11:04:07.270Z,99.9
2022-12-28T11:05:11.045Z,99.9
2022-12-28T11:06:14.462Z,99.8
2022-12-28T11:07:18.503Z,99.8
2022-12-28T11:08:21.530Z,99.7
2022-12-28T11:09:24.673Z,99.6
2022-12-28T11:10:28.424Z,99.6
2022-12-28T11:11:31.177Z,99.6
2022-12-28T11:12:33.638Z,99.6
2022-12-28T11:13:36.716Z,99.7
2022-12-28T11:14:39.713Z,99.7
2022-12-28T11:15:42.974Z,99.7
2022-12-28T11:16:46.148Z,99.8
2022-12-28T11:17:49.677Z,99.7
2022-12-28T11:18:52.622Z,99.7
2022-12-28T11:19:55.371Z,99.7
2022-12-28T11:20:58.513Z,99.6
2022-12-28T11:22:01.363Z,99.7
2022-12-28T11:23:05.084Z,99.7
2022-12-28T11:24:07.912Z,99.7
2022-12-28T11:25:11.180Z,99.7
2022-12-28T11:26:13.897Z,99.8
2022-12-28T11:27:16.984Z,99.7
2022-12-28T11:28:23.198Z,99.8
2022-12-28T11:29:26.368Z,99.8
2022-12-28T11:30:29.666Z,99.7
2022-12-28T11:31:33.282Z,99.7
2022-12-28T11:32:36.811Z,99.7
2022-12-28T11:33:40.637Z,99.6
2022-12-28T11:34:44.026Z,99.7
2022-12-28T11:35:47.744Z,99.7
2022-12-28T11:36:51.258Z,99.8
2022-12-28T11:37:54.575Z,99.8
2022-12-28T11:38:57.841Z,99.7
2022-12-28T11:40:01.359Z,99.7
2022-12-28T11:41:04.772Z,99.7
2022-12-28T11:42:42.360Z,99.8
2022-12-28T11:43:45.908Z,99.8
2022-12-28T11:44:48.897Z,99.8
2022-12-28T11:45:52.724Z,99.8
2022-12-28T11:46:56.822Z,99.8
2022-12-28T11:47:59.918Z,99.8
2022-12-28T11:49:03.069Z,99.8
2022-12-28T11:50:06.460Z,99.8
2022-12-28T11:51:09.860Z,99.8
2022-12-28T11:52:13.283Z,99.9
2022-12-28T11:53:16.063Z,99.9
2022-12-28T11:54:19.185Z,99.9
2022-12-28T11:55:21.371Z,100
2022-12-28T11:56:24.386Z,100
2022-12-28T11:57:26.866Z,100
2022-12-28T11:58:30.220Z,100
2022-12-28T11:59:33.315Z,100
2022-12-28T12:00:36.522Z,100
2022-12-28T12:01:39.911Z,100
2022-12-28T12:02:43.297Z,100
2022-12-28T12:03:46.338Z,100
2022-12-28T12:04:49.810Z,100
2022-12-28T12:05:53.407Z,100
2022-12-28T12:06:56.171Z,100
2022-12-28T12:07:59.521Z,100
2022-12-28T12:09:02.908Z,100
2022-12-28T12:10:06.379Z,100
2022-12-28T12:11:09.505Z,99.9
2022-12-28T12:12:19.480Z,99.9
2022-12-28T12:13:22.757Z,99.8
2022-12-28T12:14:26.136Z,99.9
2022-12-28T12:15:29.560Z,99.8
2022-12-28T12:16:33.362Z,99.8
2022-12-28T12:17:44.219Z,99.8
2022-12-28T12:18:47.504Z,99.8
2022-12-28T12:19:50.995Z,99.8
2022-12-28T12:20:54.311Z,99.7
2022-12-28T12:21:58.081Z,99.6
2022-12-28T12:23:01.193Z,99.7
2022-12-28T12:24:04.588Z,99.8
2022-12-28T12:25:08.019Z,99.8
2022-12-28T12:26:10.854Z,99.8
2022-12-28T12:27:15.156Z,99.7
2022-12-28T12:28:18.130Z,99.7
2022-12-28T12:29:21.454Z,99.6
2022-12-28T12:30:24.500Z,99.6
2022-12-28T12:31:28.133Z,99.6
2022-12-28T12:32:31.829Z,99.6
2022-12-28T12:33:34.830Z,99.7
2022-12-28T12:34:38.596Z,99.7
2022-12-28T12:35:42.325Z,99.6
2022-12-28T12:36:45.422Z,99.6
2022-12-28T12:37:48.331Z,99.6
2022-12-28T12:38:51.987Z,99.7
2022-12-28T12:39:55.107Z,99.7
2022-12-28T12:40:58.252Z,99.8
2022-12-28T12:42:02.014Z,99.8
2022-12-28T12:43:05.150Z,99.8
2022-12-28T12:44:07.814Z,99.9
2022-12-28T12:45:10.911Z,99.9
2022-12-28T12:46:14.102Z,99.9
2022-12-28T12:47:17.858Z,99.8
2022-12-28T12:48:20.868Z,99.8
2022-12-28T12:49:24.217Z,99.8
2022-12-28T12:50:27.384Z,99.8
2022-12-28T12:51:30.735Z,99.9
2022-12-28T12:52:42.699Z,99.9
2022-12-28T12:53:50.051Z,99.9
2022-12-28T12:54:53.243Z,100
2022-12-28T12:55:56.730Z,100
2022-12-28T12:57:00.142Z,99.9
2022-12-28T12:58:03.520Z,99.9
2022-12-28T12:59:06.979Z,99.9
2022-12-28T13:00:10.367Z,99.9
2022-12-28T13:01:14.357Z,99.9
2022-12-28T13:02:18.558Z,99.8
2022-12-28T13:03:22.613Z,99.8
2022-12-28T13:04:26.052Z,99.8
2022-12-28T13:05:29.378Z,99.8
2022-12-28T13:06:32.472Z,99.8
2022-12-28T13:07:37.102Z,99.8
2022-12-28T13:08:40.405Z,99.8
2022-12-28T13:09:44.155Z,99.8
2022-12-28T13:10:46.967Z,99.8
2022-12-28T13:11:49.795Z,99.8
2022-12-28T13:12:52.637Z,99.8
2022-12-28T13:13:56.699Z,99.8
2022-12-28T13:15:00.175Z,99.8
2022-12-28T13:16:04.222Z,99.8
2022-12-28T13:17:07.449Z,99.8
2022-12-28T13:18:46.752Z,99.7
2022-12-28T13:19:50.016Z,99.8
2022-12-28T13:20:53.507Z,99.8
2022-12-28T13:21:56.496Z,99.9
2022-12-28T13:22:59.917Z,99.9
2022-12-28T13:24:03.642Z,99.9
2022-12-28T13:25:06.924Z,99.8
2022-12-28T13:26:10.128Z,99.8
2022-12-28T13:27:13.978Z,99.8
2022-12-28T13:28:17.163Z,99.9
2022-12-28T13:29:20.258Z,99.8
2022-12-28T13:30:23.360Z,99.9
2022-12-28T13:31:26.750Z,99.9
2022-12-28T13:32:39.362Z,99.9
2022-12-28T13:33:42.366Z,100
2022-12-28T13:34:45.739Z,100
2022-12-28T13:35:48.242Z,100
2022-12-28T13:36:50.674Z,100
2022-12-28T13:37:53.684Z,100
2022-12-28T13:38:57.200Z,100
2022-12-28T13:40:01.209Z,100
2022-12-28T13:41:03.941Z,100
2022-12-28T13:42:06.888Z,100
2022-12-28T13:43:10.989Z,100
2022-12-28T13:44:14.422Z,100
2022-12-28T13:45:18.174Z,100
2022-12-28T13:46:21.250Z,100
2022-12-28T13:47:24.411Z,100
2022-12-28T13:48:28.068Z,100
2022-12-28T13:49:31.072Z,100
2022-12-28T13:50:34.491Z,100
2022-12-28T13:51:38.229Z,100
2022-12-28T13:52:41.070Z,100
2022-12-28T13:53:44.075Z,100
2022-12-28T13:54:47.125Z,100
2022-12-28T13:55:50.523Z,100
2022-12-28T13:57:47.041Z,100
2022-12-28T13:59:02.678Z,100
2022-12-28T14:00:05.933Z,100
2022-12-28T14:01:09.622Z,100
2022-12-28T14:02:13.839Z,100
2022-12-28T14:03:17.691Z,100
2022-12-28T14:04:54.705Z,100
2022-12-28T14:05:58.204Z,100
2022-12-28T14:07:01.200Z,100
2022-12-28T14:08:03.941Z,100
2022-12-28T14:09:07.532Z,100
2022-12-28T14:10:11.549Z,100
2022-12-28T14:11:14.638Z,100
2022-12-28T14:12:17.209Z,100
2022-12-28T14:13:20.315Z,100
2022-12-28T14:14:23.848Z,100
2022-12-28T14:15:27.912Z,100
2022-12-28T14:16:31.656Z,100
2022-12-28T14:17:36.497Z,100
2022-12-28T14:18:39.505Z,100
2022-12-28T14:19:43.217Z,100
2022-12-28T14:20:46.627Z,100
2022-12-28T14:21:49.172Z,100
2022-12-28T14:22:52.165Z,100
2022-12-28T14:23:55.646Z,100
2022-12-28T14:24:58.652Z,100